Time;durP1;ratioP1;P1;durP2;ratioP2;P2;SDS_P1;SDS_P2;PMS_P1;PMS_P2;Temp;Humidity;BMP_temperature;BMP_pressure;BME280_temperature;BME280_humidity;BME280_pressure;Samples;Min_cycle;Max_cycle;Signal;HPM_P1;HPM_P2
2023/06/02 00:02:22;;;;;;;12.70;3.45;;;;;;;9.57;100.00;101752.22;5042019;28;20176;-50
2023/06/02 00:04:49;;;;;;;15.15;4.32;;;;;;;9.47;100.00;101747.06;5038935;28;20234;-48
2023/06/02 00:07:16;;;;;;;9.05;3.13;;;;;;;9.56;100.00;101740.66;5035966;28;20230;-49
2023/06/02 00:09:43;;;;;;;16.85;4.60;;;;;;;9.27;100.00;101742.06;5037313;28;20253;-50
2023/06/02 00:12:10;;;;;;;13.65;4.10;;;;;;;9.37;100.00;101742.78;5035982;28;20525;-48
2023/06/02 00:14:42;;;;;;;13.35;3.80;;;;;;;9.46;100.00;101737.25;5034000;28;20299;-49
2023/06/02 00:17:10;;;;;;;17.95;4.40;;;;;;;9.09;100.00;101742.38;5040814;28;20539;-48
2023/06/02 00:19:42;;;;;;;13.00;3.97;;;;;;;9.12;100.00;101737.00;5036633;28;20313;-48
2023/06/02 00:22:13;;;;;;;20.38;4.90;;;;;;;9.05;100.00;101743.34;5034328;28;20230;-49
2023/06/02 00:24:39;;;;;;;19.35;5.07;;;;;;;8.90;100.00;101741.84;5035001;28;20173;-50
2023/06/02 00:27:07;;;;;;;16.13;4.30;;;;;;;8.74;100.00;101738.50;5033962;28;20183;-48
2023/06/02 00:29:32;;;;;;;18.42;4.47;;;;;;;8.81;100.00;101739.28;5038108;28;20668;-48
2023/06/02 00:31:58;;;;;;;16.92;3.83;;;;;;;9.03;100.00;101740.72;5048685;28;20183;-48
2023/06/02 00:34:24;;;;;;;15.20;4.25;;;;;;;9.04;100.00;101737.13;5041664;28;20203;-50
2023/06/02 00:36:50;;;;;;;10.73;3.75;;;;;;;9.17;100.00;101742.25;5045213;28;20199;-48
2023/06/02 00:39:16;;;;;;;12.05;3.83;;;;;;;9.08;100.00;101744.19;5042880;28;20218;-49
2023/06/02 00:41:41;;;;;;;14.13;3.60;;;;;;;9.15;100.00;101739.59;5040833;28;20179;-49
2023/06/02 00:44:07;;;;;;;13.18;3.13;;;;;;;9.27;100.00;101743.84;5047531;28;20666;-48
2023/06/02 00:46:33;;;;;;;11.50;2.90;;;;;;;9.31;100.00;101744.69;5057628;28;20223;-50
2023/06/02 00:48:58;;;;;;;9.50;3.35;;;;;;;9.40;100.00;101742.75;5045995;28;20605;-47
2023/06/02 00:51:24;;;;;;;9.90;3.10;;;;;;;9.43;100.00;101739.13;5040314;28;20661;-48
2023/06/02 00:53:50;;;;;;;12.70;3.30;;;;;;;9.36;100.00;101748.13;5057304;28;20190;-49
2023/06/02 00:56:16;;;;;;;8.98;3.05;;;;;;;9.42;100.00;101751.63;5054325;28;20218;-48
2023/06/02 00:58:45;;;;;;;8.07;2.70;;;;;;;9.45;100.00;101734.63;5041852;28;20229;-49
2023/06/02 01:01:12;;;;;;;6.38;2.65;;;;;;;9.49;100.00;101742.56;5041390;28;20232;-48
2023/06/02 01:03:39;;;;;;;11.15;3.05;;;;;;;9.42;100.00;101746.28;5055891;28;20192;-49
2023/06/02 01:06:06;;;;;;;12.70;3.72;;;;;;;9.42;100.00;101742.69;5036621;28;20218;-49
2023/06/02 01:08:34;;;;;;;10.40;3.35;;;;;;;9.40;100.00;101747.19;5039794;28;20259;-49
2023/06/02 01:11:00;;;;;;;8.20;2.95;;;;;;;9.37;100.00;101745.44;5057587;28;20211;-49
2023/06/02 01:13:25;;;;;;;10.52;2.75;;;;;;;9.43;100.00;101756.03;5042096;28;20206;-48
2023/06/02 01:15:51;;;;;;;10.20;3.72;;;;;;;9.31;100.00;101758.94;5040046;28;20682;-50
2023/06/02 01:18:25;;;;;;;11.13;3.33;;;;;;;9.31;100.00;101753.56;5040663;28;20201;-49
2023/06/02 01:20:57;;;;;;;9.57;3.38;;;;;;;9.29;100.00;101760.75;5039805;28;20337;-50
2023/06/02 01:23:29;;;;;;;8.57;2.95;;;;;;;9.38;100.00;101763.28;5034793;28;20180;-48
2023/06/02 01:25:55;;;;;;;16.13;3.40;;;;;;;9.42;100.00;101762.31;5041482;28;20214;-50
2023/06/02 01:28:21;;;;;;;11.70;2.97;;;;;;;9.58;100.00;101762.91;5041533;28;20176;-49
2023/06/02 01:30:55;;;;;;;9.63;2.60;;;;;;;9.68;100.00;101759.13;5043602;28;20172;-49
2023/06/02 01:33:47;;;;;;;9.40;2.03;;;;;;;10.13;100.00;101760.91;5040600;28;20178;-51
2023/06/02 01:36:14;;;;;;;11.63;2.55;;;;;;;10.33;100.00;101764.97;5055620;28;20679;-49
2023/06/02 01:38:42;;;;;;;4.55;1.70;;;;;;;11.09;100.00;101771.19;5042942;22;20553;-49
2023/06/02 01:41:09;;;;;;;13.23;2.42;;;;;;;11.47;100.00;101771.97;5049888;28;20164;-49
2023/06/02 01:43:36;;;;;;;8.75;2.20;;;;;;;11.61;100.00;101770.72;5049578;28;20179;-47
2023/06/02 01:46:03;;;;;;;8.30;1.60;;;;;;;11.59;100.00;101772.56;5051364;28;20187;-50
2023/06/02 01:48:29;;;;;;;5.97;2.05;;;;;;;11.67;100.00;101759.81;5053505;28;20190;-50
2023/06/02 01:50:55;;;;;;;6.82;1.98;;;;;;;11.71;100.00;101765.06;5058796;28;20609;-48
2023/06/02 01:53:26;;;;;;;5.93;1.88;;;;;;;11.61;100.00;101773.41;5061938;22;20297;-53
2023/06/02 01:55:51;;;;;;;5.68;1.83;;;;;;;11.46;100.00;101764.00;5071344;28;20211;-52
2023/06/02 01:58:17;;;;;;;8.10;2.20;;;;;;;11.43;100.00;101772.97;5035384;28;20271;-53
2023/06/02 02:00:44;;;;;;;8.27;2.53;;;;;;;11.41;100.00;101771.28;5043186;28;20514;-52
2023/06/02 02:03:09;;;;;;;7.95;2.05;;;;;;;11.38;100.00;101774.91;5042243;28;20176;-53
2023/06/02 02:05:35;;;;;;;9.60;2.60;;;;;;;11.42;100.00;101779.28;5039112;28;20290;-54
2023/06/02 02:08:00;;;;;;;11.77;2.60;;;;;;;11.43;100.00;101774.78;5035913;28;20191;-53
2023/06/02 02:10:26;;;;;;;5.78;2.30;;;;;;;11.48;100.00;101772.88;5035849;28;20191;-53
2023/06/02 02:12:52;;;;;;;8.63;2.50;;;;;;;11.51;100.00;101781.72;5039808;28;20627;-53
2023/06/02 02:15:17;;;;;;;9.35;2.25;;;;;;;11.50;100.00;101779.97;5037446;28;20219;-52
2023/06/02 02:17:47;;;;;;;7.18;2.03;;;;;;;11.53;100.00;101782.56;5040907;28;20188;-53
2023/06/02 02:22:46;;;;;;;7.30;2.25;;;;;;;11.54;100.00;101786.13;5024000;28;20213;-48
2023/06/02 02:25:12;;;;;;;5.90;2.00;;;;;;;11.58;100.00;101790.47;5019533;28;20693;-49
2023/06/02 02:27:39;;;;;;;8.43;2.50;;;;;;;11.52;100.00;101785.28;5007174;28;20641;-51
2023/06/02 02:30:06;;;;;;;7.53;2.72;;;;;;;11.50;100.00;101787.13;5002724;28;20191;-50
2023/06/02 02:32:34;;;;;;;5.50;2.60;;;;;;;11.50;100.00;101788.03;5010567;28;20254;-52
2023/06/02 02:35:00;;;;;;;9.10;2.88;;;;;;;11.51;100.00;101786.22;4998553;28;20212;-52
2023/06/02 02:37:27;;;;;;;10.02;3.15;;;;;;;11.54;100.00;101788.81;5000772;28;20725;-52
2023/06/02 02:39:53;;;;;;;7.60;3.25;;;;;;;11.53;100.00;101787.94;4998906;28;20187;-50
2023/06/02 02:42:18;;;;;;;11.98;2.90;;;;;;;11.57;100.00;101799.47;5015725;28;20200;-51
2023/06/02 02:44:44;;;;;;;7.63;2.88;;;;;;;11.57;100.00;101798.56;5025639;28;20180;-53
2023/06/02 02:47:10;;;;;;;11.68;3.58;;;;;;;11.58;100.00;101800.34;5020336;28;20216;-52
2023/06/02 02:49:35;;;;;;;8.40;3.20;;;;;;;11.59;100.00;101799.41;5003296;28;20188;-50
2023/06/02 02:52:02;;;;;;;8.38;3.13;;;;;;;11.57;100.00;101802.16;5022384;28;20556;-51
2023/06/02 02:54:27;;;;;;;9.95;3.40;;;;;;;11.61;100.00;101811.00;4999453;28;20650;-52
2023/06/02 02:56:53;;;;;;;10.48;3.25;;;;;;;11.64;100.00;101810.94;5009413;28;20235;-52
2023/06/02 02:59:20;;;;;;;9.13;3.05;;;;;;;11.67;100.00;101816.19;5004866;28;20185;-53
2023/06/02 03:01:46;;;;;;;7.53;3.30;;;;;;;11.69;100.00;101809.84;5017451;28;20269;-51
2023/06/02 03:04:18;;;;;;;11.73;4.28;;;;;;;11.65;100.00;101821.59;5001015;28;20220;-53
2023/06/02 03:06:45;;;;;;;11.15;3.70;;;;;;;11.64;100.00;101821.66;4999711;28;20204;-51
2023/06/02 03:09:12;;;;;;;11.27;4.10;;;;;;;11.62;100.00;101823.50;5000798;28;20181;-51
2023/06/02 03:11:38;;;;;;;11.23;4.55;;;;;;;11.64;100.00;101824.34;5003897;28;20188;-51
2023/06/02 03:14:04;;;;;;;11.98;4.18;;;;;;;11.65;100.00;101829.66;5016742;28;20211;-50
2023/06/02 03:16:30;;;;;;;12.18;3.80;;;;;;;11.65;100.00;101832.34;4986604;28;20292;-50
2023/06/02 03:18:56;;;;;;;16.13;4.70;;;;;;;11.66;100.00;101839.50;4988397;28;20680;-50
2023/06/02 03:21:23;;;;;;;10.05;3.60;;;;;;;11.67;100.00;101837.69;5016786;28;20231;-52
2023/06/02 03:23:49;;;;;;;12.43;3.80;;;;;;;11.70;100.00;101834.94;5013932;28;20204;-51
2023/06/02 03:26:16;;;;;;;15.50;4.25;;;;;;;11.69;100.00;101831.34;5001263;28;20721;-50
2023/06/02 03:28:42;;;;;;;15.00;4.00;;;;;;;11.69;100.00;101834.03;5008803;28;20274;-52
2023/06/02 03:31:09;;;;;;;11.70;3.95;;;;;;;11.71;100.00;101840.22;5006603;28;20184;-52
2023/06/02 03:33:35;;;;;;;13.77;4.13;;;;;;;11.74;100.00;101840.16;5000007;28;20188;-51
2023/06/02 03:36:01;;;;;;;8.10;3.58;;;;;;;11.78;100.00;101835.56;5002892;28;20420;-50
2023/06/02 03:38:27;;;;;;;13.88;4.45;;;;;;;11.80;100.00;101840.91;5020999;28;20430;-51
2023/06/02 03:40:52;;;;;;;16.77;4.35;;;;;;;11.83;100.00;101849.78;5001736;28;20508;-51
2023/06/02 03:43:18;;;;;;;12.50;4.22;;;;;;;11.85;100.00;101850.63;5004794;28;20184;-50
2023/06/02 03:45:45;;;;;;;14.45;4.05;;;;;;;11.85;100.00;101858.69;5020407;28;20283;-51
2023/06/02 03:48:13;;;;;;;10.85;4.05;;;;;;;11.88;100.00;101853.25;5003122;28;20256;-53
2023/06/02 03:50:38;;;;;;;15.23;3.85;;;;;;;11.86;100.00;101855.06;5005767;28;20183;-53
2023/06/02 03:53:05;;;;;;;15.35;4.80;;;;;;;11.85;100.00;101857.78;5000184;28;20212;-51
2023/06/02 03:55:31;;;;;;;11.73;3.92;;;;;;;11.86;100.00;101855.06;5001714;28;20240;-51
2023/06/02 03:57:57;;;;;;;13.68;4.82;;;;;;;11.93;100.00;101864.72;5019955;28;20223;-50
2023/06/02 04:00:22;;;;;;;10.63;4.82;;;;;;;11.99;100.00;101860.13;5010393;28;20193;-51
2023/06/02 04:02:51;;;;;;;13.60;4.10;;;;;;;12.10;100.00;101871.47;5008453;28;20188;-52
2023/06/02 04:05:17;;;;;;;10.68;4.03;;;;;;;12.09;100.00;101870.59;5017240;28;20677;-51
2023/06/02 04:07:44;;;;;;;11.90;3.85;;;;;;;12.19;100.00;101873.00;5011629;28;20611;-51
2023/06/02 04:10:10;;;;;;;9.13;3.72;;;;;;;12.16;100.00;101873.97;5005926;28;20254;-53
2023/06/02 04:12:36;;;;;;;7.93;3.80;;;;;;;12.20;100.00;101875.66;5019866;28;20207;-51
2023/06/02 04:15:03;;;;;;;11.25;3.90;;;;;;;12.22;100.00;101875.59;5011636;28;20235;-52
2023/06/02 04:17:29;;;;;;;10.63;4.38;;;;;;;12.23;100.00;101878.25;5002344;28;20665;-51
2023/06/02 04:19:55;;;;;;;13.15;4.47;;;;;;;12.26;100.00;101882.66;5004222;28;20267;-49
2023/06/02 04:22:21;;;;;;;12.63;4.65;;;;;;;12.27;100.00;101889.81;4992852;28;20203;-52
2023/06/02 04:24:46;;;;;;;9.95;4.32;;;;;;;12.28;100.00;101884.38;5003078;28;20179;-51
2023/06/02 04:27:17;;;;;;;11.13;4.25;;;;;;;12.34;100.00;101891.38;5003291;28;20569;-51
2023/06/02 04:29:43;;;;;;;9.98;4.55;;;;;;;12.39;100.00;101891.25;5006855;28;20242;-51
2023/06/02 04:32:09;;;;;;;8.80;4.47;;;;;;;12.49;100.00;101896.31;5023155;28;20195;-48
2023/06/02 04:34:35;;;;;;;11.32;4.15;;;;;;;12.53;100.00;101895.31;5021748;28;20286;-49
2023/06/02 04:37:02;;;;;;;13.88;4.45;;;;;;;12.50;100.00;101902.56;5001262;28;20296;-49
2023/06/02 04:39:28;;;;;;;11.35;3.75;;;;;;;12.43;100.00;101903.69;4986883;28;20180;-47
2023/06/02 04:41:58;;;;;;;8.95;3.63;;;;;;;12.52;100.00;101916.84;5005247;28;20234;-48
2023/06/02 04:44:24;;;;;;;9.70;4.10;;;;;;;12.42;100.00;101912.66;5004963;28;20238;-47
2023/06/02 04:46:51;;;;;;;7.47;3.55;;;;;;;12.29;100.00;101907.63;5012051;28;20650;-46
2023/06/02 04:49:18;;;;;;;9.90;3.67;;;;;;;12.27;100.00;101912.16;5010387;28;20208;-47
2023/06/02 04:51:45;;;;;;;9.98;3.88;;;;;;;12.15;100.00;101910.69;5001054;28;20727;-47
2023/06/02 04:54:11;;;;;;;10.30;4.00;;;;;;;12.24;100.00;101916.75;4989126;28;20183;-48
2023/06/02 04:56:37;;;;;;;9.07;3.60;;;;;;;12.15;100.00;101926.81;5010411;28;20212;-49
2023/06/02 04:59:05;;;;;;;8.05;3.17;;;;;;;12.29;100.00;101920.19;4988543;28;20189;-48
2023/06/02 05:01:31;;;;;;;12.90;3.05;;;;;;;12.15;100.00;101923.25;5000963;28;20181;-49
2023/06/02 05:03:56;;;;;;;8.57;2.88;;;;;;;12.19;100.00;101924.06;4990858;28;20195;-50
2023/06/02 05:06:22;;;;;;;6.55;2.90;;;;;;;12.34;100.00;101924.50;5009877;28;20211;-48
2023/06/02 05:08:50;;;;;;;8.35;2.55;;;;;;;12.37;100.00;101931.59;5010923;28;20202;-48
2023/06/02 05:11:15;;;;;;;5.95;2.50;;;;;;;12.39;100.00;101934.25;5021249;28;20195;-48
2023/06/02 05:13:45;;;;;;;6.63;2.85;;;;;;;12.45;100.00;101934.09;5006292;28;20639;-48
2023/06/02 05:16:10;;;;;;;6.07;2.45;;;;;;;12.43;100.00;101946.69;5012365;28;20724;-48
2023/06/02 05:18:36;;;;;;;6.45;2.55;;;;;;;12.55;100.00;101940.94;5006493;28;20212;-49
2023/06/02 05:21:02;;;;;;;6.20;2.10;;;;;;;12.48;100.00;101956.34;5002769;28;20199;-48
2023/06/02 05:23:29;;;;;;;6.70;2.08;;;;;;;12.49;100.00;101957.25;5022145;28;20180;-48
2023/06/02 05:25:54;;;;;;;4.57;1.80;;;;;;;12.39;100.00;101953.06;5002334;28;20251;-49
2023/06/02 05:28:20;;;;;;;4.57;2.20;;;;;;;12.49;100.00;101951.88;5020226;28;20215;-49
2023/06/02 05:30:45;;;;;;;6.28;2.00;;;;;;;12.59;100.00;101964.13;5003978;28;20180;-50
2023/06/02 05:33:12;;;;;;;6.05;2.25;;;;;;;12.33;100.00;101960.38;5008830;28;20199;-48
2023/06/02 05:35:37;;;;;;;6.35;1.63;;;;;;;12.46;100.00;101958.25;5019485;28;20216;-47
2023/06/02 05:38:03;;;;;;;5.18;2.35;;;;;;;12.50;100.00;101972.44;5003754;28;20231;-48
2023/06/02 05:40:28;;;;;;;3.85;2.20;;;;;;;12.52;100.00;101973.28;5018882;28;20853;-47
2023/06/02 05:42:55;;;;;;;3.97;1.90;;;;;;;12.48;100.00;101982.38;5009084;28;20658;-49
2023/06/02 05:45:21;;;;;;;5.68;1.80;;;;;;;12.51;100.00;101983.16;5003108;28;20204;-47
2023/06/02 05:47:49;;;;;;;6.28;2.05;;;;;;;12.44;100.00;101978.00;5015929;28;20180;-47
2023/06/02 05:50:16;;;;;;;3.78;1.55;;;;;;;12.42;100.00;101987.91;5006984;28;20230;-47
2023/06/02 05:52:42;;;;;;;4.10;1.55;;;;;;;12.38;100.00;101981.75;5015655;28;20255;-47
2023/06/02 05:55:08;;;;;;;6.97;1.85;;;;;;;12.32;100.00;101987.28;5002330;28;20243;-47
2023/06/02 05:57:34;;;;;;;5.95;1.92;;;;;;;12.57;100.00;101993.75;5005041;28;20236;-47
2023/06/02 06:00:00;;;;;;;5.20;1.60;;;;;;;12.73;100.00;101994.19;5000967;28;20185;-47
2023/06/02 06:02:26;;;;;;;5.63;1.80;;;;;;;12.82;99.38;102000.25;4997523;28;20922;-46
2023/06/02 06:04:52;;;;;;;4.18;1.80;;;;;;;12.53;98.65;102001.97;5018802;28;20192;-44
2023/06/02 06:07:17;;;;;;;6.60;1.80;;;;;;;12.75;98.71;102000.41;5022248;28;20188;-47
2023/06/02 06:09:43;;;;;;;4.53;1.73;;;;;;;12.68;98.66;101998.84;4984976;28;20223;-47
2023/06/02 06:12:09;;;;;;;7.88;1.50;;;;;;;12.88;98.74;102006.34;4987670;28;20190;-45
2023/06/02 06:14:35;;;;;;;4.25;1.67;;;;;;;12.81;97.86;102014.59;5003625;28;20201;-45
2023/06/02 06:17:01;;;;;;;5.82;1.80;;;;;;;13.19;97.17;102019.75;5008139;28;20270;-45
2023/06/02 06:19:28;;;;;;;6.80;1.73;;;;;;;13.13;95.46;102001.09;5018358;28;20200;-46
2023/06/02 06:21:53;;;;;;;7.25;1.92;;;;;;;13.30;95.17;102018.59;5022575;28;20223;-47
2023/06/02 06:24:19;;;;;;;7.38;2.03;;;;;;;13.73;93.62;102009.13;5000292;28;20658;-46
2023/06/02 06:26:44;;;;;;;3.33;1.40;;;;;;;13.52;92.08;102010.72;5003763;28;20266;-45
2023/06/02 06:29:10;;;;;;;6.97;2.20;;;;;;;13.58;91.02;102014.09;5005898;28;20195;-45
2023/06/02 06:31:36;;;;;;;5.35;1.70;;;;;;;13.43;90.32;102016.41;5004797;28;20260;-45
2023/06/02 06:34:04;;;;;;;7.10;2.00;;;;;;;13.81;90.50;102007.09;5024947;28;20184;-46
2023/06/02 06:36:31;;;;;;;5.20;1.50;;;;;;;13.78;89.24;102013.44;5011464;28;20247;-49
2023/06/02 06:38:56;;;;;;;6.00;1.85;;;;;;;14.23;88.93;102017.34;5021584;28;20191;-47
2023/06/02 06:41:24;;;;;;;4.63;1.80;;;;;;;13.90;87.46;102006.78;5002115;28;20180;-46
2023/06/02 06:43:50;;;;;;;5.20;1.60;;;;;;;14.01;87.68;102018.09;5003685;28;20188;-47
2023/06/02 06:46:16;;;;;;;6.65;1.73;;;;;;;14.25;86.80;102011.91;5012595;28;20261;-48
2023/06/02 06:48:42;;;;;;;4.43;1.60;;;;;;;14.53;86.17;102017.22;5030770;28;20258;-48
2023/06/02 06:51:07;;;;;;;8.98;1.77;;;;;;;14.18;86.09;102016.63;4993197;28;20670;-47
2023/06/02 06:53:33;;;;;;;6.90;2.05;;;;;;;13.50;86.83;102026.91;5018596;28;20533;-47
2023/06/02 06:56:00;;;;;;;6.00;2.17;;;;;;;14.07;87.09;102026.91;5029972;28;20207;-49
2023/06/02 06:58:25;;;;;;;4.40;1.80;;;;;;;14.52;86.12;102020.81;5019233;28;20190;-48
2023/06/02 07:00:51;;;;;;;4.63;1.50;;;;;;;14.38;84.63;102024.00;5013839;28;20192;-46
2023/06/02 07:03:16;;;;;;;4.65;1.60;;;;;;;14.40;84.80;102016.75;5022619;28;20188;-47
2023/06/02 07:05:43;;;;;;;5.28;1.55;;;;;;;14.49;83.41;102026.34;5011163;28;20200;-53
2023/06/02 07:08:09;;;;;;;3.25;1.77;;;;;;;14.47;82.58;102031.78;5030346;28;20195;-46
2023/06/02 07:10:34;;;;;;;6.05;1.77;;;;;;;14.86;81.48;102041.22;5030527;28;20187;-50
2023/06/02 07:13:00;;;;;;;4.60;1.70;;;;;;;14.78;81.73;102038.81;5010399;28;20204;-47
2023/06/02 07:15:25;;;;;;;9.93;1.90;;;;;;;14.92;81.15;102046.41;5021890;28;20248;-48
2023/06/02 07:17:51;;;;;;;3.38;1.42;;;;;;;14.53;80.45;102044.19;4986582;28;20188;-48
2023/06/02 07:20:16;;;;;;;5.95;1.70;;;;;;;14.31;80.71;102053.00;5021295;28;20677;-48
2023/06/02 07:22:42;;;;;;;4.93;1.98;;;;;;;14.07;81.28;102051.16;5018043;28;20594;-47
2023/06/02 07:25:08;;;;;;;5.50;1.90;;;;;;;14.62;81.63;102069.03;4991317;28;20721;-47
2023/06/02 07:27:34;;;;;;;4.68;1.50;;;;;;;14.16;81.11;102067.88;4982067;28;20258;-49
2023/06/02 07:30:04;;;;;;;4.75;1.58;;;;;;;14.41;81.47;102065.25;4993611;28;20211;-46
2023/06/02 07:32:29;;;;;;;3.97;1.77;;;;;;;14.37;81.96;102078.91;4988430;28;20305;-49
2023/06/02 07:34:55;;;;;;;5.30;1.83;;;;;;;14.90;81.24;102072.56;5018247;28;20207;-47
2023/06/02 07:37:20;;;;;;;4.07;1.63;;;;;;;14.80;80.08;102080.09;5018010;28;20188;-47
2023/06/02 07:39:46;;;;;;;5.88;1.90;;;;;;;15.37;79.04;102072.59;5016964;28;20188;-47
2023/06/02 07:42:12;;;;;;;5.55;1.55;;;;;;;14.41;78.63;102076.03;5018313;28;20184;-47
2023/06/02 07:44:37;;;;;;;5.00;1.63;;;;;;;14.23;79.73;102084.72;5014774;28;20647;-50
2023/06/02 07:47:04;;;;;;;6.28;1.75;;;;;;;14.17;80.35;102101.13;5018699;28;20228;-48
2023/06/02 07:49:29;;;;;;;4.07;1.67;;;;;;;14.88;79.37;102083.41;5000540;28;20271;-51
2023/06/02 07:51:55;;;;;;;7.57;1.83;;;;;;;14.82;78.17;102089.03;5029086;28;20180;-47
2023/06/02 07:54:20;;;;;;;5.40;1.60;;;;;;;15.08;77.98;102095.28;5020312;28;20203;-47
2023/06/02 07:56:46;;;;;;;6.00;1.60;;;;;;;15.03;77.55;102084.69;5016341;28;20239;-48
2023/06/02 07:59:12;;;;;;;6.25;1.65;;;;;;;15.96;75.66;102082.00;5028397;28;20194;-52
2023/06/02 08:01:38;;;;;;;5.68;1.80;;;;;;;15.73;74.93;102067.63;5032365;28;20562;-46
2023/06/02 08:04:04;;;;;;;2.72;1.45;;;;;;;14.89;74.85;102074.41;5026009;28;20184;-50
2023/06/02 08:06:30;;;;;;;6.20;2.03;;;;;;;15.59;74.67;102081.66;5015255;28;20201;-51
2023/06/02 08:08:58;;;;;;;4.07;1.55;;;;;;;15.68;73.21;102063.28;5031486;28;20184;-52
2023/06/02 08:11:24;;;;;;;7.88;2.00;;;;;;;15.92;72.17;102070.47;5024461;28;20192;-49
2023/06/02 08:13:49;;;;;;;6.70;1.60;;;;;;;16.21;71.83;102063.84;5021043;28;20179;-47
2023/06/02 08:16:15;;;;;;;5.95;1.80;;;;;;;15.92;70.88;102059.66;5023854;28;20212;-52
2023/06/02 08:18:40;;;;;;;4.13;1.40;;;;;;;16.05;70.70;102062.72;5021892;28;20223;-50
2023/06/02 08:21:06;;;;;;;5.70;1.58;;;;;;;16.15;70.00;102050.56;5019765;28;20199;-46
2023/06/02 08:23:32;;;;;;;3.75;1.42;;;;;;;16.87;69.51;102058.28;5025161;28;20192;-46
2023/06/02 08:25:58;;;;;;;5.05;1.58;;;;;;;17.15;67.59;102051.63;5015386;28;20200;-47
2023/06/02 08:28:27;;;;;;;5.88;1.55;;;;;;;16.78;67.92;102053.25;5027595;28;20289;-49
2023/06/02 08:30:58;;;;;;;3.28;1.45;;;;;;;16.60;67.30;102052.25;5016078;28;20227;-52
2023/06/02 08:33:24;;;;;;;4.57;1.52;;;;;;;16.41;66.25;102049.47;5013486;28;20192;-50
2023/06/02 08:35:50;;;;;;;5.60;1.75;;;;;;;16.10;67.09;102055.28;5023309;28;20216;-49
2023/06/02 08:38:17;;;;;;;5.88;1.70;;;;;;;16.53;67.19;102061.59;5005458;28;20207;-48
2023/06/02 08:40:45;;;;;;;6.55;1.95;;;;;;;16.21;67.04;102049.44;5024531;28;20219;-48
2023/06/02 08:43:13;;;;;;;3.28;1.40;;;;;;;16.72;66.53;102058.94;5026055;28;20553;-50
2023/06/02 08:45:40;;;;;;;4.55;1.88;;;;;;;16.56;64.87;102056.03;5024153;28;20195;-48
2023/06/02 08:48:07;;;;;;;5.07;1.70;;;;;;;16.83;64.88;102062.06;5024008;28;20193;-46
2023/06/02 08:50:38;;;;;;;5.03;1.73;;;;;;;16.25;65.15;102051.94;5005431;28;20192;-48
2023/06/02 08:53:06;;;;;;;3.78;1.60;;;;;;;16.39;65.22;102062.16;5024524;28;20184;-48
2023/06/02 08:55:35;;;;;;;4.05;1.77;;;;;;;16.53;65.12;102066.09;5020486;28;20224;-46
2023/06/02 08:58:01;;;;;;;4.47;1.80;;;;;;;16.99;64.02;102061.38;5020569;28;20290;-44
2023/06/02 09:00:27;;;;;;;5.47;1.42;;;;;;;16.86;64.03;102061.94;5021827;28;20195;-46
2023/06/02 09:02:53;;;;;;;5.95;1.80;;;;;;;16.37;64.14;102046.94;5024017;28;20180;-53
2023/06/02 09:05:19;;;;;;;5.55;1.70;;;;;;;17.11;63.03;102052.69;5016311;28;20289;-51
2023/06/02 09:07:46;;;;;;;4.15;1.70;;;;;;;17.09;61.91;102049.19;5020754;28;20208;-53
2023/06/02 09:10:42;;;;;;;5.05;1.88;;;;;;;16.39;61.90;102040.53;5024579;28;20246;-51
2023/06/02 09:13:11;;;;;;;4.78;1.75;;;;;;;16.85;60.25;102043.94;5010378;28;20250;-50
2023/06/02 09:15:54;;;;;;;5.57;1.55;;;;;;;17.47;59.69;102044.69;5022534;28;20745;-51
2023/06/02 09:18:20;;;;;;;6.07;1.65;;;;;;;16.81;59.41;102034.19;5019312;28;20260;-51
2023/06/02 09:20:48;;;;;;;6.05;1.58;;;;;;;16.43;58.51;102019.63;5017156;28;20656;-44
2023/06/02 09:23:14;;;;;;;3.47;1.35;;;;;;;16.69;58.73;102021.19;5021322;28;20192;-48
2023/06/02 09:25:40;;;;;;;7.78;1.50;;;;;;;17.17;56.92;102030.75;5022970;28;20208;-47
2023/06/02 09:28:07;;;;;;;4.18;1.15;;;;;;;17.15;55.47;102005.56;5017418;28;20184;-47
2023/06/02 09:30:33;;;;;;;4.50;1.13;;;;;;;17.69;55.04;102012.00;5023604;28;20242;-44
2023/06/02 09:33:00;;;;;;;3.38;1.40;;;;;;;17.25;55.33;102001.50;5015512;28;20188;-44
2023/06/02 09:35:44;;;;;;;7.35;1.73;;;;;;;16.89;57.34;102037.44;5012550;28;20220;-46
2023/06/02 09:38:14;;;;;;;5.10;1.63;;;;;;;17.23;57.32;102038.59;5015477;28;20198;-45
2023/06/02 09:40:42;;;;;;;4.32;1.48;;;;;;;16.91;57.37;102031.09;5019232;28;20189;-45
2023/06/02 09:43:11;;;;;;;3.42;1.30;;;;;;;17.85;56.25;102047.38;5022247;28;20185;-45
2023/06/02 09:45:49;;;;;;;1.95;1.40;;;;;;;17.53;55.60;102027.25;5018503;28;20292;-44
2023/06/02 09:48:18;;;;;;;4.28;1.42;;;;;;;18.13;55.23;102032.47;5017295;28;20192;-45
2023/06/02 09:50:44;;;;;;;5.20;1.58;;;;;;;18.08;54.27;102019.13;5022742;28;20275;-45
2023/06/02 09:53:11;;;;;;;6.93;1.65;;;;;;;17.78;54.44;102040.50;5007841;28;20185;-44
2023/06/02 09:55:37;;;;;;;5.00;1.10;;;;;;;17.37;53.68;102020.81;5020830;28;20278;-44
2023/06/02 09:58:07;;;;;;;4.80;1.48;;;;;;;17.49;54.71;102044.59;5016255;28;20239;-46
2023/06/02 10:00:35;;;;;;;2.75;1.33;;;;;;;17.90;53.91;102039.91;5020019;28;20226;-45
2023/06/02 10:03:01;;;;;;;2.80;1.23;;;;;;;17.73;52.82;102015.41;5021354;28;20612;-44
2023/06/02 10:05:28;;;;;;;3.92;1.42;;;;;;;16.61;53.20;102016.09;5018605;28;20232;-45
2023/06/02 10:07:59;;;;;;;2.55;1.25;;;;;;;17.48;53.01;102022.03;5017380;28;20254;-45
2023/06/02 10:10:38;;;;;;;2.88;1.25;;;;;;;17.90;52.51;102033.59;5024397;28;20215;-45
2023/06/02 10:13:20;;;;;;;4.28;1.20;;;;;;;18.05;51.47;102013.84;5021227;28;20586;-45
2023/06/02 10:15:49;;;;;;;3.72;1.10;;;;;;;18.35;50.71;102013.25;5023443;28;20212;-45
2023/06/02 10:19:09;;;;;;;3.28;1.00;;;;;;;17.09;51.92;102014.84;5017865;28;20195;-50
2023/06/02 10:21:55;;;;;;;4.10;1.05;;;;;;;17.61;51.86;102024.16;5005365;28;20191;-48
2023/06/02 10:24:23;;;;;;;3.92;1.02;;;;;;;17.75;50.18;102009.94;5023314;28;20199;-47
2023/06/02 10:27:29;;;;;;;2.45;1.20;;;;;;;17.40;50.42;102005.28;5026067;28;20216;-47
2023/06/02 10:29:56;;;;;;;7.45;1.33;;;;;;;17.90;50.27;102010.06;5007885;28;20196;-52
2023/06/02 10:32:48;;;;;;;2.78;1.38;;;;;;;18.16;50.22;102015.16;5012999;28;20202;-47
2023/06/02 10:35:15;;;;;;;2.17;1.40;;;;;;;17.22;49.52;102007.03;4992493;28;20228;-48
2023/06/02 10:37:41;;;;;;;3.20;1.10;;;;;;;17.62;49.75;102010.56;5018491;28;20628;-51
2023/06/02 10:40:10;;;;;;;3.17;1.38;;;;;;;17.99;48.98;102008.72;5001824;28;20195;-46
2023/06/02 10:42:37;;;;;;;3.05;1.08;;;;;;;17.89;48.00;101994.78;5011607;28;20240;-48
2023/06/02 10:45:18;;;;;;;6.43;1.52;;;;;;;17.53;48.10;102000.13;5018066;28;20203;-47
2023/06/02 10:47:45;;;;;;;2.88;0.95;;;;;;;17.75;48.23;101999.09;5020820;28;20191;-50
2023/06/02 10:50:14;;;;;;;1.48;1.00;;;;;;;17.24;48.79;102018.69;5018781;28;20241;-45
2023/06/02 10:52:58;;;;;;;2.67;1.13;;;;;;;17.79;47.55;101997.97;5021645;28;20188;-50
2023/06/02 10:55:24;;;;;;;2.38;1.30;;;;;;;18.33;47.35;101998.88;5016676;28;20208;-47
2023/06/02 10:57:59;;;;;;;2.63;1.20;;;;;;;17.26;46.71;101996.94;5017541;28;20199;-50
2023/06/02 11:00:39;;;;;;;4.32;1.40;;;;;;;17.20;47.26;101995.41;5020760;28;20234;-48
2023/06/02 11:03:28;;;;;;;4.85;1.35;;;;;;;17.95;47.34;102009.88;5022936;28;20199;-47
2023/06/02 11:06:18;;;;;;;2.85;1.13;;;;;;;17.49;47.21;102001.25;5013880;28;20193;-47
2023/06/02 11:08:45;;;;;;;3.13;1.15;;;;;;;16.69;48.19;102023.91;5008906;28;20559;-47
2023/06/02 11:11:11;;;;;;;3.78;1.13;;;;;;;17.00;48.85;102030.66;5017857;28;20299;-47
2023/06/02 11:13:58;;;;;;;2.38;1.15;;;;;;;16.84;48.66;102033.19;5001043;28;20215;-47
2023/06/02 11:16:26;;;;;;;3.22;1.70;;;;;;;17.44;48.48;102024.97;5015018;28;20615;-46
2023/06/02 11:18:52;;;;;;;3.05;1.30;;;;;;;17.81;48.16;102040.31;5022407;28;20195;-47
2023/06/02 11:21:22;;;;;;;3.88;1.20;;;;;;;18.05;47.70;102030.13;5014537;28;20209;-47
2023/06/02 11:23:48;;;;;;;6.38;1.40;;;;;;;17.88;48.22;102033.66;4997982;28;20227;-48
2023/06/02 11:26:16;;;;;;;2.88;1.02;;;;;;;18.31;48.00;102034.22;5015858;28;20208;-47